createdAt,value
2022-10-08T00:01:09.379Z,3.03
2022-10-08T00:04:35.542Z,2.93
2022-10-08T00:07:59.805Z,2.20
2022-10-08T00:11:27.816Z,2.80
2022-10-08T00:14:51.472Z,2.50
2022-10-08T00:18:14.967Z,2.63
2022-10-08T00:21:42.940Z,2.43
2022-10-08T00:25:08.264Z,3.27
2022-10-08T00:28:31.979Z,2.50
2022-10-08T00:31:55.504Z,3.03
2022-10-08T00:35:19.004Z,2.87
2022-10-08T00:38:43.898Z,2.83
2022-10-08T00:42:07.358Z,3.70
2022-10-08T00:45:31.969Z,3.17
2022-10-08T00:49:05.901Z,2.50
2022-10-08T00:52:36.001Z,2.40
2022-10-08T00:56:00.856Z,2.73
2022-10-08T00:59:26.271Z,2.90
2022-10-08T01:02:50.350Z,3.20
2022-10-08T01:06:28.279Z,2.70
2022-10-08T01:10:03.939Z,2.40
2022-10-08T01:13:42.831Z,2.57
2022-10-08T01:17:17.883Z,2.87
2022-10-08T01:20:59.915Z,2.47
2022-10-08T01:24:57.149Z,2.47
2022-10-08T01:28:31.942Z,2.70
2022-10-08T01:32:03.150Z,3.00
2022-10-08T01:35:34.240Z,2.83
2022-10-08T01:39:06.500Z,2.90
2022-10-08T01:42:34.860Z,2.40
2022-10-08T01:46:09.401Z,2.80
2022-10-08T01:49:42.149Z,2.77
2022-10-08T01:53:12.767Z,2.37
2022-10-08T01:56:41.191Z,2.90
2022-10-08T02:00:10.142Z,2.27
2022-10-08T02:03:37.725Z,2.60
2022-10-08T02:07:07.366Z,2.83
2022-10-08T02:10:31.522Z,3.10
2022-10-08T02:13:55.024Z,2.37
2022-10-08T02:17:29.872Z,2.90
2022-10-08T02:21:00.467Z,2.60
2022-10-08T02:24:34.483Z,2.77
2022-10-08T02:28:09.310Z,2.93
2022-10-08T02:31:40.981Z,2.73
2022-10-08T02:35:14.259Z,3.17
2022-10-08T02:38:46.118Z,2.63
2022-10-08T02:42:15.012Z,3.00
2022-10-08T02:45:46.482Z,2.83
2022-10-08T02:49:16.275Z,2.57
2022-10-08T02:52:45.457Z,3.20
2022-10-08T02:56:18.620Z,2.87
2022-10-08T02:59:43.277Z,3.30
2022-10-08T03:03:13.252Z,3.23
2022-10-08T03:06:37.856Z,3.00
2022-10-08T03:10:05.605Z,2.80
2022-10-08T03:13:34.582Z,3.00
2022-10-08T03:16:58.065Z,2.50
2022-10-08T03:20:23.224Z,2.70
2022-10-08T03:23:47.107Z,2.50
2022-10-08T03:27:10.507Z,2.40
2022-10-08T03:30:35.660Z,2.83
2022-10-08T03:33:59.471Z,2.80
2022-10-08T03:37:23.114Z,2.47
2022-10-08T03:40:56.651Z,2.53
2022-10-08T03:44:20.422Z,2.80
2022-10-08T03:47:45.297Z,3.00
2022-10-08T03:51:12.719Z,3.13
2022-10-08T03:54:36.585Z,2.90
2022-10-08T03:58:00.146Z,2.70
2022-10-08T04:01:25.108Z,2.80
2022-10-08T04:04:50.062Z,2.87
2022-10-08T04:08:13.466Z,2.83
2022-10-08T04:11:36.849Z,2.47
2022-10-08T04:15:00.242Z,2.17
2022-10-08T04:18:23.757Z,2.70
2022-10-08T04:21:48.521Z,2.63
2022-10-08T04:25:11.933Z,2.80
2022-10-08T04:28:38.761Z,2.90
2022-10-08T04:32:02.494Z,3.07
2022-10-08T04:35:26.368Z,3.10
2022-10-08T04:38:52.019Z,2.77
2022-10-08T04:42:15.475Z,2.80
2022-10-08T04:45:44.744Z,2.40
2022-10-08T04:49:08.209Z,2.50
2022-10-08T04:52:33.132Z,2.70
2022-10-08T04:55:58.948Z,2.50
2022-10-08T04:59:22.377Z,2.70
2022-10-08T05:02:46.864Z,2.67
2022-10-08T05:06:11.685Z,2.60
2022-10-08T05:09:35.182Z,2.40
2022-10-08T05:12:59.939Z,2.43
2022-10-08T05:16:24.736Z,2.57
2022-10-08T05:19:48.296Z,2.50
2022-10-08T05:23:12.076Z,2.37
2022-10-08T05:26:58.524Z,2.60
2022-10-08T05:30:23.124Z,2.43
2022-10-08T05:33:46.625Z,2.73
2022-10-08T05:37:10.063Z,2.50
2022-10-08T05:40:33.555Z,2.77
2022-10-08T05:43:58.784Z,3.30
2022-10-08T05:47:23.628Z,2.90
2022-10-08T05:50:47.039Z,2.70
2022-10-08T05:54:10.516Z,2.90
2022-10-08T05:57:34.212Z,2.67
2022-10-08T06:00:59.424Z,3.33
2022-10-08T06:04:24.282Z,2.63
2022-10-08T06:07:47.687Z,2.93
2022-10-08T06:11:11.452Z,2.50
2022-10-08T06:14:35.020Z,2.60
2022-10-08T06:17:58.481Z,2.63
2022-10-08T06:21:26.378Z,2.27
2022-10-08T06:24:49.777Z,3.00
2022-10-08T06:28:13.679Z,2.77
2022-10-08T06:31:37.602Z,3.00
2022-10-08T06:35:01.345Z,2.63
2022-10-08T06:38:26.147Z,2.93
2022-10-08T06:41:49.518Z,2.60
2022-10-08T06:45:12.877Z,2.50
2022-10-08T06:48:36.421Z,2.60
2022-10-08T06:51:59.850Z,2.57
2022-10-08T06:55:24.776Z,2.43
2022-10-08T06:58:49.256Z,2.63
2022-10-08T07:02:12.846Z,2.80
2022-10-08T07:05:36.371Z,2.70
2022-10-08T07:09:01.951Z,2.40
2022-10-08T07:12:26.852Z,2.70
2022-10-08T07:15:50.281Z,2.60
2022-10-08T07:19:13.777Z,2.70
2022-10-08T07:22:37.180Z,2.20
2022-10-08T07:26:03.628Z,2.40
2022-10-08T07:29:28.463Z,2.60
2022-10-08T07:32:53.814Z,2.63
2022-10-08T07:36:20.692Z,2.43
2022-10-08T07:39:44.194Z,2.50
2022-10-08T07:43:07.595Z,2.47
2022-10-08T07:46:34.485Z,2.43
2022-10-08T07:49:57.894Z,2.40
2022-10-08T07:53:21.640Z,2.03
2022-10-08T07:56:46.029Z,1.83
2022-10-08T08:00:11.141Z,1.80
2022-10-08T08:03:38.829Z,2.33
2022-10-08T08:07:02.216Z,2.30
2022-10-08T08:10:25.647Z,2.20
2022-10-08T08:13:49.715Z,2.40
2022-10-08T08:17:13.243Z,2.10
2022-10-08T08:20:38.010Z,1.67
2022-10-08T08:24:07.324Z,1.80
2022-10-08T08:27:30.863Z,2.10
2022-10-08T08:30:54.267Z,2.03
2022-10-08T08:34:21.131Z,1.90
2022-10-08T08:37:46.069Z,2.03
2022-10-08T08:41:34.889Z,2.67
2022-10-08T08:45:01.656Z,1.77
2022-10-08T08:48:32.989Z,2.23
2022-10-08T08:51:59.141Z,1.70
2022-10-08T08:55:36.217Z,1.87
2022-10-08T08:59:06.461Z,1.30
2022-10-08T09:02:35.693Z,1.47
2022-10-08T09:06:09.783Z,1.80
2022-10-08T09:09:40.174Z,1.60
2022-10-08T09:13:05.267Z,1.83
2022-10-08T09:16:29.410Z,1.70
2022-10-08T09:19:52.957Z,2.00
2022-10-08T09:23:19.512Z,1.90
2022-10-08T09:26:43.718Z,2.00
2022-10-08T09:30:34.190Z,1.97
2022-10-08T09:34:05.213Z,1.40
2022-10-08T09:37:28.796Z,1.30
2022-10-08T09:41:07.684Z,1.43
2022-10-08T09:44:41.958Z,2.30
2022-10-08T09:48:32.340Z,1.40
2022-10-08T09:52:00.167Z,1.70
2022-10-08T09:55:31.906Z,1.60
2022-10-08T09:58:59.632Z,1.50
2022-10-08T10:02:32.198Z,1.20
2022-10-08T10:06:20.377Z,2.07
2022-10-08T10:09:55.398Z,1.80
2022-10-08T10:13:24.440Z,1.70
2022-10-08T10:16:59.383Z,1.77
2022-10-08T10:20:30.744Z,2.07
2022-10-08T10:24:28.361Z,1.60
2022-10-08T10:27:59.507Z,1.80
2022-10-08T10:31:29.300Z,1.53
2022-10-08T10:35:06.018Z,1.80
2022-10-08T10:38:32.210Z,1.53
2022-10-08T10:42:09.225Z,1.77
2022-10-08T10:45:36.013Z,2.03
2022-10-08T10:49:00.439Z,2.00
2022-10-08T10:52:46.736Z,1.87
2022-10-08T10:56:16.972Z,1.80
2022-10-08T10:59:52.047Z,1.47
2022-10-08T11:03:24.306Z,1.50
2022-10-08T11:07:05.393Z,1.67
2022-10-08T11:10:57.257Z,1.97
2022-10-08T11:14:44.564Z,1.30
2022-10-08T11:18:32.982Z,1.40
2022-10-08T11:22:10.150Z,1.97
2022-10-08T11:26:03.031Z,1.53
2022-10-08T11:29:38.689Z,1.77
2022-10-08T11:33:02.693Z,1.60
2022-10-08T11:36:42.405Z,1.50
2022-10-08T11:40:21.770Z,1.40
2022-10-08T11:43:53.707Z,1.10
2022-10-08T11:47:49.559Z,1.67
2022-10-08T11:51:37.599Z,1.80
2022-10-08T11:55:02.863Z,1.60
2022-10-08T11:58:31.311Z,1.40
2022-10-08T12:01:58.353Z,1.47
2022-10-08T12:05:44.502Z,1.27
2022-10-08T12:09:24.657Z,1.87
2022-10-08T12:13:24.949Z,1.80
2022-10-08T12:17:11.505Z,1.50
2022-10-08T12:20:37.950Z,1.20
2022-10-08T12:24:01.568Z,1.27
2022-10-08T12:27:37.397Z,1.27
2022-10-08T12:31:03.181Z,1.37
2022-10-08T12:34:26.920Z,1.33
2022-10-08T12:38:17.235Z,1.60
2022-10-08T12:41:56.879Z,1.40
2022-10-08T12:45:30.071Z,1.50
2022-10-08T12:49:01.021Z,1.47
2022-10-08T12:52:25.713Z,1.20
2022-10-08T12:55:56.035Z,1.30
2022-10-08T12:59:22.112Z,1.00
2022-10-08T13:03:00.673Z,1.10
2022-10-08T13:06:33.158Z,1.20
2022-10-08T13:10:00.463Z,2.27
2022-10-08T13:13:44.827Z,1.87
2022-10-08T13:17:30.678Z,1.20
2022-10-08T13:21:01.268Z,1.33
2022-10-08T13:24:43.470Z,1.00
2022-10-08T13:28:15.623Z,1.30
2022-10-08T13:31:39.134Z,1.00
2022-10-08T13:35:05.928Z,1.00
2022-10-08T13:38:34.863Z,1.27
2022-10-08T13:42:01.803Z,1.00
2022-10-08T13:45:28.503Z,1.00
2022-10-08T13:48:51.975Z,1.00
2022-10-08T13:52:18.107Z,1.03
2022-10-08T13:55:46.282Z,1.00
2022-10-08T13:59:11.564Z,1.20
2022-10-08T14:02:35.132Z,0.90
2022-10-08T14:05:59.319Z,1.20
2022-10-08T14:09:26.510Z,1.00
2022-10-08T14:12:51.314Z,0.90
2022-10-08T14:16:15.134Z,1.57
2022-10-08T14:19:38.588Z,1.20
2022-10-08T14:23:02.425Z,1.23
2022-10-08T14:26:25.896Z,1.13
2022-10-08T14:29:50.808Z,0.93
2022-10-08T14:33:14.341Z,1.10
2022-10-08T14:36:41.612Z,1.20
2022-10-08T14:40:08.380Z,1.10
2022-10-08T14:43:32.013Z,0.90
2022-10-08T14:46:56.970Z,0.90
2022-10-08T14:50:20.578Z,0.90
2022-10-08T14:53:44.107Z,0.90
2022-10-08T14:57:07.506Z,0.70
2022-10-08T15:00:30.929Z,0.80
2022-10-08T15:03:55.826Z,0.90
2022-10-08T15:07:19.286Z,0.93
2022-10-08T15:10:42.933Z,1.00
2022-10-08T15:14:06.913Z,1.00
2022-10-08T15:17:30.353Z,0.90
2022-10-08T15:21:00.442Z,0.90
2022-10-08T15:24:24.049Z,0.90
2022-10-08T15:27:47.844Z,0.80
2022-10-08T15:31:15.021Z,0.87
2022-10-08T15:34:38.604Z,1.10
2022-10-08T15:38:03.390Z,0.83
2022-10-08T15:41:28.713Z,0.90
2022-10-08T15:44:52.074Z,1.27
2022-10-08T15:48:16.716Z,1.00
2022-10-08T15:51:40.295Z,1.10
2022-10-08T15:55:05.734Z,1.17
2022-10-08T15:58:49.956Z,0.93
2022-10-08T16:02:17.591Z,0.80
2022-10-08T16:05:41.681Z,1.10
2022-10-08T16:09:05.927Z,0.90
2022-10-08T16:12:30.670Z,0.93
2022-10-08T16:15:54.038Z,0.90
2022-10-08T16:19:20.560Z,0.83
2022-10-08T16:22:44.026Z,1.07
2022-10-08T16:26:09.669Z,0.90
2022-10-08T16:29:34.431Z,1.17
2022-10-08T16:32:57.764Z,0.90
2022-10-08T16:36:21.183Z,1.10
2022-10-08T16:39:45.078Z,1.07
2022-10-08T16:43:08.636Z,0.87
2022-10-08T16:46:37.819Z,0.90
2022-10-08T16:50:01.900Z,1.00
2022-10-08T16:53:25.656Z,1.17
2022-10-08T16:56:49.620Z,1.27
2022-10-08T17:00:14.840Z,1.40
2022-10-08T17:03:39.767Z,1.00
2022-10-08T17:07:03.405Z,1.10
2022-10-08T17:10:30.091Z,1.07
2022-10-08T17:13:56.555Z,1.00
2022-10-08T17:17:20.074Z,0.93
2022-10-08T17:20:45.230Z,1.03
2022-10-08T17:24:11.665Z,1.03
2022-10-08T17:27:35.164Z,0.97
2022-10-08T17:31:01.072Z,1.20
2022-10-08T17:34:24.837Z,0.97
2022-10-08T17:37:49.914Z,1.00
2022-10-08T17:41:16.214Z,1.00
2022-10-08T17:44:40.204Z,1.20
2022-10-08T17:48:04.137Z,1.10
2022-10-08T17:51:29.814Z,1.70
2022-10-08T17:54:54.711Z,1.20
2022-10-08T17:58:18.162Z,1.20
2022-10-08T18:01:45.080Z,1.20
2022-10-08T18:05:09.983Z,1.20
2022-10-08T18:08:34.083Z,1.03
2022-10-08T18:11:58.945Z,1.47
2022-10-08T18:15:23.277Z,1.17
2022-10-08T18:18:48.371Z,1.50
2022-10-08T18:22:12.123Z,1.30
2022-10-08T18:25:36.592Z,1.10
2022-10-08T18:29:05.231Z,1.10
2022-10-08T18:32:28.779Z,1.17
2022-10-08T18:35:52.457Z,1.23
2022-10-08T18:39:18.811Z,1.30
2022-10-08T18:42:42.950Z,1.73
2022-10-08T18:46:08.088Z,1.77
2022-10-08T18:49:32.968Z,1.50
2022-10-08T18:52:56.416Z,1.83
2022-10-08T18:56:23.146Z,1.77
2022-10-08T18:59:46.875Z,1.97
2022-10-08T19:03:11.945Z,2.53
2022-10-08T19:06:39.048Z,3.10
2022-10-08T19:10:02.692Z,3.37
2022-10-08T19:13:26.270Z,2.67
2022-10-08T19:16:51.100Z,2.87
2022-10-08T19:20:16.242Z,3.50
2022-10-08T19:23:40.711Z,3.20
2022-10-08T19:27:04.251Z,3.00
2022-10-08T19:30:32.887Z,2.60
2022-10-08T19:33:59.023Z,3.00
2022-10-08T19:37:23.887Z,2.80
2022-10-08T19:40:47.498Z,2.60
2022-10-08T19:44:11.820Z,1.60
2022-10-08T19:47:36.282Z,2.00
2022-10-08T19:51:05.641Z,2.00
2022-10-08T19:54:30.772Z,1.90
2022-10-08T19:57:54.443Z,1.67
2022-10-08T20:01:21.915Z,1.70
2022-10-08T20:04:46.739Z,1.50
2022-10-08T20:08:10.307Z,1.50
2022-10-08T20:11:35.751Z,1.77
2022-10-08T20:14:59.656Z,1.63
2022-10-08T20:18:24.686Z,1.80
2022-10-08T20:21:51.463Z,1.87
2022-10-08T20:25:19.028Z,2.00
2022-10-08T20:28:46.184Z,2.13
2022-10-08T20:32:11.788Z,3.17
2022-10-08T20:35:37.491Z,3.03
2022-10-08T20:39:01.255Z,2.97
2022-10-08T20:42:26.912Z,2.90
2022-10-08T20:45:51.747Z,3.20
2022-10-08T20:49:15.950Z,3.00
2022-10-08T20:52:39.612Z,2.73
2022-10-08T20:56:05.303Z,3.10
2022-10-08T20:59:28.998Z,3.30
2022-10-08T21:02:53.913Z,2.73
2022-10-08T21:06:20.163Z,2.70
2022-10-08T21:09:44.455Z,2.23
2022-10-08T21:13:08.207Z,2.80
2022-10-08T21:16:35.661Z,2.27
2022-10-08T21:20:00.656Z,1.93
2022-10-08T21:23:25.207Z,2.07
2022-10-08T21:26:51.570Z,2.43
2022-10-08T21:30:15.532Z,2.30
2022-10-08T21:33:43.698Z,2.53
2022-10-08T21:37:13.577Z,2.97
2022-10-08T21:40:37.731Z,2.67
2022-10-08T21:44:04.265Z,2.17
2022-10-08T21:47:28.732Z,1.93
2022-10-08T21:51:00.743Z,2.03
2022-10-08T21:54:25.436Z,2.50
2022-10-08T21:57:48.826Z,1.83
2022-10-08T22:01:22.830Z,1.87
2022-10-08T22:04:46.673Z,1.70
2022-10-08T22:08:10.169Z,2.13
2022-10-08T22:11:35.425Z,1.70
2022-10-08T22:14:58.896Z,1.70
2022-10-08T22:18:23.317Z,1.97
2022-10-08T22:21:49.045Z,1.40
2022-10-08T22:25:12.762Z,1.77
2022-10-08T22:28:38.473Z,2.00
2022-10-08T22:32:01.999Z,1.87
2022-10-08T22:35:25.486Z,1.83
2022-10-08T22:38:50.464Z,1.90
2022-10-08T22:42:13.857Z,1.80
2022-10-08T22:45:41.423Z,1.87
2022-10-08T22:49:08.729Z,2.00
2022-10-08T22:52:32.121Z,1.90
2022-10-08T22:55:55.649Z,1.90
2022-10-08T22:59:19.012Z,1.97
2022-10-08T23:02:43.722Z,1.80
2022-10-08T23:06:11.854Z,2.30
2022-10-08T23:09:35.267Z,1.77
2022-10-08T23:12:58.745Z,2.07
2022-10-08T23:16:22.505Z,1.70
2022-10-08T23:19:47.360Z,1.50
2022-10-08T23:23:10.928Z,1.97
2022-10-08T23:26:36.207Z,1.63
2022-10-08T23:30:01.612Z,1.90
2022-10-08T23:33:25.332Z,2.40
2022-10-08T23:36:50.563Z,1.73
2022-10-08T23:40:15.513Z,1.70
2022-10-08T23:43:43.423Z,1.73
2022-10-08T23:47:06.928Z,1.70
2022-10-08T23:50:30.394Z,1.77
2022-10-08T23:53:56.383Z,1.67
2022-10-08T23:57:20.929Z,1.40
